Stittville, NY

12:04 PM EST on January 30, 2015 (GMT -0500)
Marcy | Change Station
CLOSE
Current Station
Personal Weather Station
Location: Marcy, NY
Elevation: 814 ft
Nearby Weather Stations
Active Advisory: Wind Chill Advisory Active Notice: Public Information Statement

Elev 814 ft 43.19 °N, 75.27 °W | Updated 1 second ago

Overcast
Overcast
25.0 °F
Feels Like 25 °F
N
0.0
Wind Variable Wind from WNW
Gusts 8.1 mph

Today
High -- | Low -- °F
--% Chance of Precip.
Yesterday
High -- | Low -- °F
Precip. -- in
7:19 AM 5:10 PM
Waxing Gibbous, 84% visible
Pressure 29.99 in
Visibility 10.0 miles
Clouds Mostly Cloudy 2800 ft
Overcast 3400 ft
Windchill 25 °F
Dew Point 16 °F
Humidity 70%
Rainfall 0.00 in
Snow Depth Not available.
UV 1 out of 12
Pollen .10 out of 12
Air Quality Not available.
Flu Activity Not available.
METAR KRME 301653Z 29014KT 10SM BKN028 OVC034 M04/M09 A2997 RMK AO2 SLP153 T10391089

More Conditions Fewer Conditions

Pressure 29.99 in
Visibility 10.0 miles
Clouds Mostly Cloudy 2800 ft
Overcast 3400 ft
Windchill 25 °F
Dew Point 16 °F
Humidity 70%
Rainfall 0.00 in
Snow Depth Not available.
UV 1 out of 12
Pollen .10 out of 12
Air Quality Not available.
Flu Activity Not available.
METAR KRME 301653Z 29014KT 10SM BKN028 OVC034 M04/M09 A2997 RMK AO2 SLP153 T10391089

More Conditions Fewer Conditions

10-Day Weather Forecast

Almanac

Astronomy

Jan. 30, 2015 Rise Set
Actual Time
Civil Twilight
Nautical Twilight
Astronomical Twilight
Moon
Length of Visible Light
Length of Day
Tomorrow will be .
, % of the Moon is Illuminated

Today's Extremes

State Highs State Lows

Community

WunderPhotos

Upload Photos

1,791,821 photos uploaded!

WunderBlogs® & News

Nearby

Air Quality

  Air Quality AQ Index Pollutant
Not available.

Snow Depth

Station Depth Elevation

Earthquake Activity

City Distance Mag. Time & Date
Minimum magnitude displayed is 2.5.

Coastal Water Temperatures

Place Temperature

Nearby Weather Stations